createdAt,value
2019-05-22T00:01:01.710Z,37.15
2019-05-22T00:03:09.702Z,37.13
2019-05-22T00:05:32.411Z,37.44
2019-05-22T00:07:42.540Z,37.31
2019-05-22T00:09:52.788Z,37.09
2019-05-22T00:12:01.113Z,37.04
2019-05-22T00:14:10.976Z,37.30
2019-05-22T00:16:21.543Z,37.25
2019-05-22T00:18:31.194Z,37.43
2019-05-22T00:20:42.226Z,37.39
2019-05-22T00:22:49.284Z,37.28
2019-05-22T00:24:59.341Z,37.25
2019-05-22T00:27:09.853Z,37.26
2019-05-22T00:29:17.609Z,37.22
2019-05-22T00:31:26.791Z,37.12
2019-05-22T00:33:36.795Z,37.16
2019-05-22T00:35:45.478Z,36.96
2019-05-22T00:37:54.329Z,37.13
2019-05-22T00:40:04.481Z,37.29
2019-05-22T00:42:13.647Z,36.93
2019-05-22T00:44:21.703Z,37.28
2019-05-22T00:46:30.574Z,37.15
2019-05-22T00:48:39.089Z,37.37
2019-05-22T00:50:54.969Z,37.56
2019-05-22T00:53:23.863Z,37.59
2019-05-22T00:56:01.362Z,37.62
2019-05-22T00:58:16.323Z,37.66
2019-05-22T01:00:34.848Z,37.67
2019-05-22T01:02:43.139Z,37.69
2019-05-22T01:04:51.329Z,37.75
2019-05-22T01:06:59.064Z,37.47
2019-05-22T01:09:09.267Z,37.46
2019-05-22T01:11:16.798Z,37.50
2019-05-22T01:13:23.996Z,37.46
2019-05-22T01:15:32.254Z,37.54
2019-05-22T01:17:42.065Z,37.34
2019-05-22T01:19:52.585Z,37.60
2019-05-22T01:22:02.152Z,37.57
2019-05-22T01:24:10.891Z,37.04
2019-05-22T01:26:21.597Z,36.95
2019-05-22T01:28:33.590Z,36.87
2019-05-22T01:31:08.661Z,36.78
2019-05-22T01:33:23.500Z,36.61
2019-05-22T01:35:36.942Z,36.37
2019-05-22T01:37:45.895Z,36.28
2019-05-22T01:40:10.677Z,36.28
2019-05-22T01:42:28.802Z,36.19
2019-05-22T01:44:36.804Z,36.19
2019-05-22T01:46:46.511Z,36.05
2019-05-22T01:48:57.351Z,36.04
2019-05-22T01:51:06.752Z,36.05
2019-05-22T01:53:16.112Z,36.17
2019-05-22T01:55:24.110Z,36.46
2019-05-22T01:57:31.838Z,36.24
2019-05-22T01:59:39.787Z,36.31
2019-05-22T02:01:48.518Z,36.44
2019-05-22T02:03:57.686Z,36.45
2019-05-22T02:06:06.644Z,36.65
2019-05-22T02:08:14.944Z,36.46
2019-05-22T02:10:28.231Z,36.38
2019-05-22T02:12:53.306Z,36.10
2019-05-22T02:15:01.991Z,36.00
2019-05-22T02:17:12.635Z,35.76
2019-05-22T02:19:21.177Z,35.84
2019-05-22T02:21:30.251Z,35.67
2019-05-22T02:23:38.619Z,35.67
2019-05-22T02:25:46.364Z,35.76
2019-05-22T02:27:54.660Z,35.79
2019-05-22T02:30:02.355Z,35.75
2019-05-22T02:32:12.986Z,35.82
2019-05-22T02:34:20.423Z,35.65
2019-05-22T02:36:28.091Z,35.54
2019-05-22T02:38:36.188Z,35.68
2019-05-22T02:40:45.482Z,35.70
2019-05-22T02:42:53.844Z,35.61
2019-05-22T02:45:02.661Z,35.67
2019-05-22T02:47:19.700Z,35.63
2019-05-22T02:49:23.548Z,35.76
2019-05-22T02:51:31.527Z,36.03
2019-05-22T02:53:38.907Z,35.92
2019-05-22T02:55:47.276Z,35.89
2019-05-22T02:57:55.622Z,35.95
2019-05-22T03:00:04.222Z,36.02
2019-05-22T03:02:12.841Z,35.92
2019-05-22T03:04:20.620Z,36.51
2019-05-22T03:06:28.467Z,36.18
2019-05-22T03:09:14.342Z,36.15
2019-05-22T03:11:22.835Z,36.05
2019-05-22T03:14:00.210Z,36.40
2019-05-22T03:16:10.212Z,36.61
2019-05-22T03:18:20.405Z,36.80
2019-05-22T03:20:29.360Z,37.12
2019-05-22T03:22:42.703Z,37.30
2019-05-22T03:24:52.090Z,37.28
2019-05-22T03:26:59.780Z,37.22
2019-05-22T03:29:07.253Z,37.19
2019-05-22T03:31:17.623Z,37.03
2019-05-22T03:33:26.257Z,36.97
2019-05-22T03:35:39.205Z,36.93
2019-05-22T03:37:48.165Z,36.93
2019-05-22T03:39:56.647Z,36.91
2019-05-22T03:42:04.789Z,36.96
2019-05-22T03:44:12.218Z,36.82
2019-05-22T03:46:49.026Z,36.82
2019-05-22T03:48:58.119Z,36.82
2019-05-22T03:51:15.491Z,36.92
2019-05-22T03:53:25.375Z,37.00
2019-05-22T03:55:33.226Z,36.83
2019-05-22T03:57:41.821Z,36.72
2019-05-22T03:59:49.799Z,36.59
2019-05-22T04:01:59.525Z,36.62
2019-05-22T04:04:10.363Z,36.59
2019-05-22T04:06:18.089Z,36.44
2019-05-22T04:08:27.044Z,36.44
2019-05-22T04:10:41.640Z,36.37
2019-05-22T04:12:50.749Z,36.44
2019-05-22T04:14:58.615Z,36.34
2019-05-22T04:17:09.382Z,36.52
2019-05-22T04:19:17.552Z,36.40
2019-05-22T04:21:26.229Z,36.45
2019-05-22T04:23:33.440Z,36.42
2019-05-22T04:25:40.855Z,36.50
2019-05-22T04:27:49.111Z,36.50
2019-05-22T04:29:57.679Z,36.44
2019-05-22T04:32:23.590Z,36.45
2019-05-22T04:34:32.370Z,36.41
2019-05-22T04:36:40.520Z,36.55
2019-05-22T04:38:48.034Z,36.45
2019-05-22T04:40:57.290Z,36.41
2019-05-22T04:43:05.235Z,36.41
2019-05-22T04:45:15.863Z,36.34
2019-05-22T04:47:24.991Z,36.50
2019-05-22T04:49:33.068Z,36.42
2019-05-22T04:51:40.851Z,36.43
2019-05-22T04:53:48.030Z,36.32
2019-05-22T04:55:55.787Z,36.50
2019-05-22T04:58:05.074Z,36.55
2019-05-22T05:00:12.830Z,36.88
2019-05-22T05:02:21.585Z,36.91
2019-05-22T05:06:43.102Z,36.84
2019-05-22T05:08:51.823Z,36.96
2019-05-22T05:11:03.661Z,37.01
2019-05-22T05:13:11.345Z,37.10
2019-05-22T05:15:19.916Z,37.11
2019-05-22T05:17:27.743Z,37.14
2019-05-22T05:19:35.009Z,37.23
2019-05-22T05:21:42.658Z,37.18
2019-05-22T05:23:50.563Z,37.15
2019-05-22T05:25:57.818Z,37.17
2019-05-22T05:28:07.615Z,37.27
2019-05-22T05:30:16.270Z,37.08
2019-05-22T05:32:23.279Z,37.11
2019-05-22T05:34:40.433Z,37.15
2019-05-22T05:36:48.157Z,37.22
2019-05-22T05:38:56.823Z,37.36
2019-05-22T05:41:04.157Z,37.31
2019-05-22T05:43:19.568Z,37.39
2019-05-22T05:45:27.776Z,37.38
2019-05-22T05:47:35.304Z,37.55
2019-05-22T05:49:43.254Z,37.29
2019-05-22T05:51:52.187Z,37.28
2019-05-22T05:54:09.883Z,37.27
2019-05-22T05:56:18.612Z,37.26
2019-05-22T05:58:31.359Z,37.22
2019-05-22T06:00:44.565Z,37.30
2019-05-22T06:02:56.454Z,37.24
2019-05-22T06:05:00.443Z,37.55
2019-05-22T06:07:28.443Z,37.45
2019-05-22T06:09:36.404Z,37.14
2019-05-22T06:11:51.044Z,36.72
2019-05-22T06:13:58.256Z,36.38
2019-05-22T06:16:50.713Z,36.10
2019-05-22T06:18:59.341Z,35.85
2019-05-22T06:21:09.167Z,36.31
2019-05-22T06:23:56.978Z,36.51
2019-05-22T06:26:05.321Z,36.60
2019-05-22T06:28:16.411Z,36.69
2019-05-22T06:30:44.830Z,36.80
2019-05-22T06:33:31.641Z,36.90
2019-05-22T06:35:39.247Z,37.06
2019-05-22T06:37:57.652Z,37.21
2019-05-22T06:40:06.514Z,37.34
2019-05-22T06:42:13.720Z,37.35
2019-05-22T06:44:41.320Z,37.39
2019-05-22T06:46:49.305Z,37.45
2019-05-22T06:48:58.112Z,37.55
2019-05-22T06:51:18.547Z,37.47
2019-05-22T06:53:15.089Z,37.45
2019-05-22T06:55:22.404Z,37.56
2019-05-22T06:57:34.740Z,37.55
2019-05-22T06:59:44.197Z,37.58
2019-05-22T07:02:00.791Z,37.86
2019-05-22T07:04:00.884Z,37.56
2019-05-22T07:06:08.901Z,37.49
2019-05-22T07:08:18.171Z,37.52
2019-05-22T07:10:26.565Z,37.43
2019-05-22T07:12:35.356Z,37.67
2019-05-22T07:14:52.059Z,37.43
2019-05-22T07:16:59.553Z,37.46
2019-05-22T07:19:10.836Z,37.63
2019-05-22T07:21:18.426Z,37.78
2019-05-22T07:23:35.541Z,37.87
2019-05-22T07:25:45.459Z,37.85
2019-05-22T07:27:52.913Z,37.88
2019-05-22T07:30:00.179Z,37.90
2019-05-22T07:32:08.600Z,37.94
2019-05-22T07:34:16.163Z,37.83
2019-05-22T07:36:25.448Z,37.78
2019-05-22T07:38:32.927Z,37.78
2019-05-22T07:40:40.196Z,37.83
2019-05-22T07:42:47.618Z,37.82
2019-05-22T07:44:56.568Z,37.76
2019-05-22T07:47:06.233Z,37.76
2019-05-22T07:49:13.588Z,37.80
2019-05-22T07:51:21.643Z,37.81
2019-05-22T07:53:30.260Z,37.87
2019-05-22T07:55:37.741Z,37.93
2019-05-22T07:57:48.281Z,37.82
2019-05-22T07:59:55.942Z,37.86
2019-05-22T08:02:04.838Z,37.89
2019-05-22T08:04:13.684Z,37.97
2019-05-22T08:06:22.365Z,37.94
2019-05-22T08:08:32.233Z,38.08
2019-05-22T08:10:40.067Z,37.90
2019-05-22T08:12:47.965Z,38.21
2019-05-22T08:14:56.232Z,37.46
2019-05-22T08:17:05.359Z,37.19
2019-05-22T08:19:12.836Z,36.78
2019-05-22T08:21:23.425Z,36.43
2019-05-22T08:23:31.019Z,36.43
2019-05-22T08:25:39.229Z,36.27
2019-05-22T08:27:48.715Z,36.75
2019-05-22T08:29:57.512Z,36.58
2019-05-22T08:32:06.367Z,36.81
2019-05-22T08:34:14.952Z,36.92
2019-05-22T08:36:22.404Z,36.98
2019-05-22T08:38:33.205Z,37.01
2019-05-22T08:40:41.587Z,37.38
2019-05-22T08:42:50.173Z,37.42
2019-05-22T08:44:58.850Z,37.43
2019-05-22T08:47:07.999Z,37.36
2019-05-22T08:49:16.331Z,37.42
2019-05-22T08:51:24.079Z,37.54
2019-05-22T08:53:45.943Z,37.51
2019-05-22T08:55:42.416Z,37.58
2019-05-22T08:57:50.195Z,37.57
2019-05-22T08:59:57.336Z,37.67
2019-05-22T09:02:07.129Z,37.69
2019-05-22T09:04:14.843Z,37.76
2019-05-22T09:06:22.117Z,37.79
2019-05-22T09:08:29.971Z,37.82
2019-05-22T09:10:37.810Z,37.96
2019-05-22T09:12:45.675Z,37.96
2019-05-22T09:14:53.719Z,37.83
2019-05-22T09:17:01.528Z,37.79
2019-05-22T09:19:09.397Z,37.86
2019-05-22T09:21:17.096Z,37.81
2019-05-22T09:23:24.838Z,37.94
2019-05-22T09:25:33.355Z,37.87
2019-05-22T09:27:41.294Z,37.98
2019-05-22T09:29:48.536Z,38.14
2019-05-22T09:31:56.029Z,38.17
2019-05-22T09:34:03.373Z,38.16
2019-05-22T09:36:11.730Z,38.07
2019-05-22T09:38:19.519Z,38.04
2019-05-22T09:40:26.777Z,38.04
2019-05-22T09:42:34.929Z,38.08
2019-05-22T09:44:42.902Z,38.07
2019-05-22T09:46:49.873Z,38.07
2019-05-22T09:48:57.296Z,38.15
2019-05-22T09:51:04.849Z,38.14
2019-05-22T09:53:12.312Z,38.14
2019-05-22T09:55:20.448Z,38.14
2019-05-22T09:57:28.352Z,38.10
2019-05-22T09:59:35.816Z,38.05
2019-05-22T10:01:43.185Z,38.08
2019-05-22T10:03:50.555Z,38.12
2019-05-22T10:05:57.870Z,38.17
2019-05-22T10:08:06.118Z,38.15
2019-05-22T10:10:13.884Z,38.11
2019-05-22T10:12:21.683Z,38.13
2019-05-22T10:14:29.053Z,38.21
2019-05-22T10:16:36.308Z,38.12
2019-05-22T10:18:43.939Z,38.22
2019-05-22T10:20:50.970Z,38.52
2019-05-22T10:23:14.031Z,38.00
2019-05-22T10:25:16.388Z,37.48
2019-05-22T10:27:21.691Z,37.48
2019-05-22T10:29:32.208Z,36.91
2019-05-22T10:31:38.639Z,36.61
2019-05-22T10:33:45.753Z,36.50
2019-05-22T10:35:53.526Z,36.53
2019-05-22T10:38:01.296Z,36.18
2019-05-22T10:40:09.103Z,36.41
2019-05-22T10:42:16.799Z,36.66
2019-05-22T10:44:23.950Z,36.65
2019-05-22T10:46:31.212Z,36.74
2019-05-22T10:48:40.367Z,36.85
2019-05-22T10:50:47.963Z,36.98
2019-05-22T10:52:55.621Z,37.09
2019-05-22T10:55:04.947Z,37.19
2019-05-22T10:57:12.993Z,37.31
2019-05-22T10:59:20.359Z,37.38
2019-05-22T11:01:28.105Z,37.50
2019-05-22T11:03:35.747Z,37.52
2019-05-22T11:05:43.038Z,37.61
2019-05-22T11:07:51.389Z,37.73
2019-05-22T11:09:58.885Z,37.73
2019-05-22T11:12:07.119Z,37.70
2019-05-22T11:14:15.374Z,37.70
2019-05-22T11:16:22.863Z,37.74
2019-05-22T11:18:30.778Z,37.91
2019-05-22T11:20:38.125Z,38.01
2019-05-22T11:22:47.036Z,38.02
2019-05-22T11:24:54.406Z,38.01
2019-05-22T11:27:01.633Z,37.94
2019-05-22T11:29:09.029Z,38.54
2019-05-22T11:31:16.677Z,38.49
2019-05-22T11:33:24.184Z,37.85
2019-05-22T11:35:33.726Z,38.24
2019-05-22T11:37:41.165Z,37.60
2019-05-22T11:39:48.543Z,37.03
2019-05-22T11:41:56.174Z,36.77
2019-05-22T11:44:03.201Z,36.42
2019-05-22T11:46:10.830Z,36.21
2019-05-22T11:48:20.452Z,36.24
2019-05-22T11:50:28.387Z,36.03
2019-05-22T11:52:36.329Z,35.88
2019-05-22T11:54:43.862Z,35.80
2019-05-22T11:56:51.039Z,35.61
2019-05-22T11:58:58.150Z,35.38
2019-05-22T12:01:07.245Z,35.34
2019-05-22T12:03:15.023Z,35.37
2019-05-22T12:05:23.517Z,35.35
2019-05-22T12:07:31.041Z,35.36
2019-05-22T12:09:38.727Z,35.43
2019-05-22T12:11:46.485Z,35.50
2019-05-22T12:13:55.765Z,35.36
2019-05-22T12:16:05.245Z,35.22
2019-05-22T12:18:13.788Z,34.97
2019-05-22T12:20:22.205Z,35.26
2019-05-22T12:22:29.516Z,35.39
2019-05-22T12:24:37.783Z,36.19
2019-05-22T12:26:45.095Z,36.24
2019-05-22T12:28:52.346Z,36.14
2019-05-22T12:31:00.708Z,36.41
2019-05-22T12:33:13.957Z,36.67
2019-05-22T12:35:19.256Z,36.98
2019-05-22T12:37:27.540Z,36.92
2019-05-22T12:39:35.865Z,37.03
2019-05-22T12:41:44.363Z,37.25
2019-05-22T12:43:53.713Z,37.24
2019-05-22T12:46:01.427Z,37.26
2019-05-22T12:48:09.312Z,36.86
2019-05-22T12:50:19.720Z,37.07
2019-05-22T12:52:27.235Z,36.57
2019-05-22T12:54:46.106Z,36.31
2019-05-22T12:56:44.781Z,36.11
2019-05-22T12:58:53.094Z,36.44
2019-05-22T13:01:01.261Z,36.82
2019-05-22T13:03:09.661Z,36.91
2019-05-22T13:05:18.736Z,36.85
2019-05-22T13:07:26.841Z,37.04
2019-05-22T13:09:34.173Z,37.09
2019-05-22T13:11:41.546Z,37.22
2019-05-22T13:13:48.769Z,37.27
2019-05-22T13:15:56.514Z,37.31
2019-05-22T13:18:13.006Z,37.66
2019-05-22T13:20:40.977Z,37.47
2019-05-22T13:22:37.138Z,37.72
2019-05-22T13:24:45.185Z,37.73
2019-05-22T13:26:54.522Z,37.77
2019-05-22T13:29:03.783Z,37.72
2019-05-22T13:31:12.057Z,37.83
2019-05-22T13:33:22.913Z,37.93
2019-05-22T13:35:31.341Z,37.88
2019-05-22T13:37:40.268Z,37.90
2019-05-22T13:39:48.135Z,37.87
2019-05-22T13:41:56.808Z,37.94
2019-05-22T13:44:06.430Z,37.94
2019-05-22T13:46:15.049Z,37.86
2019-05-22T13:48:22.676Z,37.38
2019-05-22T13:50:31.073Z,37.43
2019-05-22T13:52:40.185Z,37.78
2019-05-22T13:54:48.158Z,37.08
2019-05-22T13:56:55.748Z,36.94
2019-05-22T13:59:04.946Z,36.63
2019-05-22T14:01:13.072Z,36.95
2019-05-22T14:03:21.485Z,36.82
2019-05-22T14:05:32.028Z,36.73
2019-05-22T14:07:39.131Z,36.78
2019-05-22T14:09:46.708Z,36.91
2019-05-22T14:11:55.680Z,37.00
2019-05-22T14:14:04.860Z,37.09
2019-05-22T14:16:12.228Z,37.87
2019-05-22T14:18:20.259Z,37.21
2019-05-22T14:20:28.690Z,37.30
2019-05-22T14:22:35.962Z,37.66
2019-05-22T14:24:43.308Z,37.94
2019-05-22T14:26:52.132Z,37.99
2019-05-22T14:28:59.792Z,37.82
2019-05-22T14:31:07.493Z,37.86
2019-05-22T14:33:15.223Z,37.85
2019-05-22T14:35:24.134Z,38.23
2019-05-22T14:37:32.101Z,38.08
2019-05-22T14:39:40.717Z,38.08
2019-05-22T14:41:48.000Z,37.88
2019-05-22T14:43:55.711Z,37.87
2019-05-22T14:46:03.822Z,37.82
2019-05-22T14:48:12.124Z,37.96
2019-05-22T14:50:19.541Z,38.01
2019-05-22T14:52:26.899Z,37.84
2019-05-22T14:54:34.986Z,37.77
2019-05-22T14:56:43.284Z,37.79
2019-05-22T14:58:51.022Z,37.71
2019-05-22T15:00:58.865Z,37.67
2019-05-22T15:03:07.104Z,37.67
2019-05-22T15:05:15.148Z,37.72
2019-05-22T15:07:23.518Z,37.69
2019-05-22T15:09:30.851Z,37.64
2019-05-22T15:11:38.296Z,37.71
2019-05-22T15:13:45.630Z,37.64
2019-05-22T15:15:53.039Z,37.64
2019-05-22T15:18:00.358Z,37.65
2019-05-22T15:20:07.949Z,37.64
2019-05-22T15:22:16.201Z,37.65
2019-05-22T15:24:23.475Z,37.63
2019-05-22T15:26:31.271Z,37.63
2019-05-22T15:28:41.143Z,37.71
2019-05-22T15:30:48.934Z,37.66
2019-05-22T15:32:56.196Z,37.67
2019-05-22T15:35:04.303Z,37.67
2019-05-22T15:37:14.183Z,37.64
2019-05-22T15:39:24.204Z,37.66
2019-05-22T15:41:31.908Z,37.62
2019-05-22T15:43:39.720Z,37.61
2019-05-22T15:45:48.564Z,37.61
2019-05-22T15:47:59.007Z,37.74
2019-05-22T15:50:08.579Z,37.53
2019-05-22T15:52:17.393Z,37.56
2019-05-22T15:54:25.620Z,37.54
2019-05-22T15:56:35.853Z,37.56
2019-05-22T15:58:49.408Z,37.57
2019-05-22T16:00:59.320Z,37.60
2019-05-22T16:03:12.609Z,37.59
2019-05-22T16:05:22.754Z,37.58
2019-05-22T16:07:30.168Z,37.62
2019-05-22T16:09:38.374Z,37.69
2019-05-22T16:11:46.121Z,37.81
2019-05-22T16:13:54.824Z,37.75
2019-05-22T16:16:03.376Z,37.64
2019-05-22T16:18:12.629Z,37.63
2019-05-22T16:20:23.695Z,37.65
2019-05-22T16:22:31.058Z,37.63
2019-05-22T16:24:39.930Z,37.60
2019-05-22T16:26:47.391Z,37.61
2019-05-22T16:28:56.037Z,37.68
2019-05-22T16:31:05.411Z,37.62
2019-05-22T16:33:13.503Z,37.63
2019-05-22T16:35:21.337Z,37.64
2019-05-22T16:37:28.650Z,37.66
2019-05-22T16:39:37.565Z,37.76
2019-05-22T16:41:46.797Z,37.64
2019-05-22T16:43:55.762Z,37.61
2019-05-22T16:46:03.298Z,37.61
2019-05-22T16:48:27.839Z,37.63
2019-05-22T16:50:22.320Z,37.66
2019-05-22T16:52:30.637Z,37.71
2019-05-22T16:54:38.999Z,37.74
2019-05-22T16:56:46.757Z,37.69
2019-05-22T16:58:54.923Z,37.76
2019-05-22T17:01:02.050Z,37.68
2019-05-22T17:03:11.662Z,37.67
2019-05-22T17:05:20.090Z,37.69
2019-05-22T17:07:28.173Z,37.67
2019-05-22T17:09:36.789Z,37.70
2019-05-22T17:11:44.660Z,37.71
2019-05-22T17:13:53.413Z,37.73
2019-05-22T17:16:01.463Z,37.68
2019-05-22T17:18:11.611Z,37.68
2019-05-22T17:20:24.354Z,37.73
2019-05-22T17:22:31.667Z,37.70
2019-05-22T17:24:39.118Z,37.71
2019-05-22T17:26:46.697Z,37.92
2019-05-22T17:28:54.330Z,38.13
2019-05-22T17:31:02.758Z,37.85
2019-05-22T17:33:11.406Z,37.31
2019-05-22T17:35:21.446Z,37.21
2019-05-22T17:37:30.378Z,37.40
2019-05-22T17:39:39.971Z,37.38
2019-05-22T17:41:48.295Z,36.94
2019-05-22T17:43:57.110Z,36.80
2019-05-22T17:46:07.298Z,36.59
2019-05-22T17:48:15.722Z,36.52
2019-05-22T17:50:27.162Z,36.42
2019-05-22T17:52:34.648Z,36.22
2019-05-22T17:54:43.339Z,36.04
2019-05-22T17:56:51.584Z,36.19
2019-05-22T17:58:59.192Z,36.25
2019-05-22T18:01:07.881Z,36.15
2019-05-22T18:03:16.111Z,36.15
2019-05-22T18:05:27.742Z,36.22
2019-05-22T18:07:36.237Z,36.41
2019-05-22T18:09:44.285Z,36.46
2019-05-22T18:11:52.257Z,36.57
2019-05-22T18:14:06.585Z,36.70
2019-05-22T18:16:14.662Z,36.76
2019-05-22T18:18:24.142Z,36.65
2019-05-22T18:20:42.227Z,36.62
2019-05-22T18:22:40.637Z,36.66
2019-05-22T18:24:48.252Z,36.71
2019-05-22T18:26:55.832Z,36.78
2019-05-22T18:29:03.471Z,36.83
2019-05-22T18:31:10.859Z,36.97
2019-05-22T18:33:18.661Z,36.99
2019-05-22T18:35:27.661Z,37.06
2019-05-22T18:37:36.720Z,37.09
2019-05-22T18:39:45.297Z,37.23
2019-05-22T18:41:53.931Z,37.20
2019-05-22T18:44:01.796Z,37.30
2019-05-22T18:46:09.625Z,37.45
2019-05-22T18:48:17.216Z,37.36
2019-05-22T18:50:24.876Z,37.43
2019-05-22T18:52:40.886Z,37.40
2019-05-22T18:54:42.682Z,37.38
2019-05-22T18:56:49.792Z,37.38
2019-05-22T18:58:57.762Z,37.44
2019-05-22T19:01:05.531Z,37.52
2019-05-22T19:03:13.133Z,37.45
2019-05-22T19:05:23.056Z,37.42
2019-05-22T19:07:30.645Z,37.48
2019-05-22T19:09:39.255Z,37.43
2019-05-22T19:11:46.783Z,37.47
2019-05-22T19:13:53.915Z,37.51
2019-05-22T19:16:01.794Z,37.57
2019-05-22T19:18:09.613Z,37.76
2019-05-22T19:20:17.425Z,37.73
2019-05-22T19:22:25.182Z,37.66
2019-05-22T19:24:34.268Z,37.87
2019-05-22T19:26:42.515Z,37.80
2019-05-22T19:28:50.794Z,37.87
2019-05-22T19:30:57.998Z,37.93
2019-05-22T19:33:07.125Z,37.94
2019-05-22T19:35:15.440Z,37.97
2019-05-22T19:37:22.907Z,38.01
2019-05-22T19:39:30.825Z,38.17
2019-05-22T19:41:38.073Z,38.24
2019-05-22T19:43:46.043Z,38.93
2019-05-22T19:45:53.389Z,38.50
2019-05-22T19:48:01.666Z,38.46
2019-05-22T19:50:22.642Z,38.67
2019-05-22T19:52:22.462Z,38.50
2019-05-22T19:54:29.129Z,38.73
2019-05-22T19:56:36.363Z,38.65
2019-05-22T19:58:45.293Z,38.63
2019-05-22T20:00:52.650Z,38.73
2019-05-22T20:03:00.925Z,38.67
2019-05-22T20:05:08.849Z,38.79
2019-05-22T20:07:18.700Z,38.86
2019-05-22T20:09:26.299Z,38.91
2019-05-22T20:11:33.612Z,39.00
2019-05-22T20:13:41.359Z,39.01
2019-05-22T20:15:48.697Z,39.21
2019-05-22T20:17:56.575Z,39.25
2019-05-22T20:20:04.330Z,39.29
2019-05-22T20:22:13.583Z,39.28
2019-05-22T20:24:21.451Z,39.21
2019-05-22T20:26:28.594Z,39.28
2019-05-22T20:28:35.840Z,39.18
2019-05-22T20:30:43.514Z,39.22
2019-05-22T20:32:51.553Z,39.27
2019-05-22T20:34:59.147Z,39.37
2019-05-22T20:37:07.864Z,39.28
2019-05-22T20:39:19.094Z,39.23
2019-05-22T20:41:26.908Z,39.41
2019-05-22T20:43:35.384Z,39.29
2019-05-22T20:45:46.134Z,39.37
2019-05-22T20:48:08.488Z,39.28
2019-05-22T20:50:16.874Z,39.31
2019-05-22T20:52:26.094Z,39.30
2019-05-22T20:54:35.059Z,39.31
2019-05-22T20:56:44.389Z,39.45
2019-05-22T20:58:52.589Z,39.53
2019-05-22T21:01:01.303Z,39.48
2019-05-22T21:03:10.350Z,39.76
2019-05-22T21:05:20.388Z,39.47
2019-05-22T21:07:36.574Z,39.46
2019-05-22T21:09:45.721Z,39.39
2019-05-22T21:11:53.703Z,39.41
2019-05-22T21:14:01.613Z,39.58
2019-05-22T21:16:10.008Z,39.41
2019-05-22T21:18:27.271Z,39.48
2019-05-22T21:20:35.233Z,39.59
2019-05-22T21:22:43.195Z,39.60
2019-05-22T21:24:51.420Z,39.69
2019-05-22T21:26:59.717Z,39.73
2019-05-22T21:29:07.931Z,39.77
2019-05-22T21:31:17.206Z,39.74
2019-05-22T21:33:25.918Z,39.72
2019-05-22T21:35:34.127Z,39.67
2019-05-22T21:37:41.707Z,39.92
2019-05-22T21:42:49.585Z,40.11
2019-05-22T21:45:03.723Z,39.92
2019-05-22T21:47:12.021Z,40.00
2019-05-22T21:49:19.871Z,40.12
2019-05-22T21:51:27.725Z,40.22
2019-05-22T21:53:35.605Z,40.24
2019-05-22T21:55:45.962Z,40.25
2019-05-22T21:57:53.535Z,40.35
2019-05-22T22:00:18.227Z,40.08
2019-05-22T22:02:40.641Z,40.18
2019-05-22T22:04:48.645Z,40.26
2019-05-22T22:06:57.161Z,40.27
2019-05-22T22:09:11.869Z,40.43
2019-05-22T22:11:22.474Z,40.36
2019-05-22T22:13:30.429Z,40.36
2019-05-22T22:15:43.417Z,40.28
2019-05-22T22:17:51.627Z,40.26
2019-05-22T22:19:59.899Z,40.52
2019-05-22T22:22:15.561Z,40.64
2019-05-22T22:24:23.937Z,40.67
2019-05-22T22:26:31.495Z,40.85
2019-05-22T22:28:39.061Z,40.54
2019-05-22T22:30:55.265Z,40.79
2019-05-22T22:33:05.741Z,40.82
2019-05-22T22:35:17.045Z,40.72
2019-05-22T22:37:25.323Z,40.54
2019-05-22T22:39:33.686Z,40.47
2019-05-22T22:41:44.401Z,40.36
2019-05-22T22:43:53.498Z,40.32
2019-05-22T22:46:13.658Z,40.68
2019-05-22T22:48:24.343Z,40.69
2019-05-22T22:50:32.075Z,40.47
2019-05-22T22:52:42.579Z,40.46
2019-05-22T22:54:50.512Z,40.36
2019-05-22T22:56:58.828Z,39.93
2019-05-22T22:59:08.546Z,39.90
2019-05-22T23:01:24.292Z,39.67
2019-05-22T23:03:36.274Z,40.13
2019-05-22T23:05:50.878Z,39.78
2019-05-22T23:08:13.449Z,40.80
2019-05-22T23:10:23.760Z,41.02
2019-05-22T23:12:31.768Z,41.21
2019-05-22T23:14:41.378Z,41.13
2019-05-22T23:16:49.183Z,41.44
2019-05-22T23:19:36.365Z,41.00
2019-05-22T23:21:40.803Z,41.26
2019-05-22T23:24:01.256Z,41.18
2019-05-22T23:26:09.492Z,41.59
2019-05-22T23:28:33.692Z,41.39
2019-05-22T23:30:28.325Z,41.36
2019-05-22T23:32:36.870Z,41.22
2019-05-22T23:34:45.536Z,41.19
2019-05-22T23:36:53.104Z,41.39
2019-05-22T23:39:05.580Z,41.13
2019-05-22T23:41:14.350Z,41.24
2019-05-22T23:43:25.201Z,40.14
2019-05-22T23:45:34.420Z,40.39
2019-05-22T23:48:06.392Z,40.65
2019-05-22T23:50:16.026Z,40.23
2019-05-22T23:52:23.659Z,40.55
2019-05-22T23:54:31.792Z,40.47
2019-05-22T23:56:40.531Z,40.89
2019-05-22T23:58:52.745Z,40.35
